<?xml version="1.0" encoding="UTF-8" standalone="no" ?>
<gpx xmlns="http://www.topografix.com/GPX/1/1" xmlns:xsi="http://www.w3.org/2001/XMLSchema-instance" xsi:schemaLocation="http://www.topografix.com/GPX/1/1 http://www.topografix.com/GPX/1/1/gpx.xsd" version="1.1" creator="VisuGPX - https://www.visugpx.com">
  <metadata>
    <name>14933839-itineraire</name>
  </metadata>
  <trk>
    <name><![CDATA[14933839-itineraire]]></name>
    <extensions>
      <line xmlns="http://www.topografix.com/GPX/gpx_style/0/2">
        <color>0000FF</color>
        <width>4</width>
      </line>
    </extensions>
    <trkseg>
      <trkpt lat="46.42991" lon="1.10573">
        <ele>131</ele>
        <time>2022-06-10T05:43:57Z</time>
      </trkpt>
      <trkpt lat="46.42998" lon="1.10556">
        <ele>131</ele>
        <time>2022-06-10T05:44:08Z</time>
      </trkpt>
      <trkpt lat="46.43007" lon="1.10546">
        <ele>131</ele>
        <time>2022-06-10T05:44:17Z</time>
      </trkpt>
      <trkpt lat="46.4301" lon="1.10542">
        <ele>131</ele>
        <time>2022-06-10T05:44:20Z</time>
      </trkpt>
      <trkpt lat="46.43024" lon="1.10536">
        <ele>130</ele>
        <time>2022-06-10T05:44:32Z</time>
      </trkpt>
      <trkpt lat="46.43087" lon="1.10527">
        <ele>129</ele>
        <time>2022-06-10T05:45:23Z</time>
      </trkpt>
      <trkpt lat="46.43104" lon="1.10528">
        <ele>129</ele>
        <time>2022-06-10T05:45:36Z</time>
      </trkpt>
      <trkpt lat="46.43116" lon="1.10535">
        <ele>130</ele>
        <time>2022-06-10T05:45:47Z</time>
      </trkpt>
      <trkpt lat="46.43131" lon="1.10548">
        <ele>131</ele>
        <time>2022-06-10T05:46:01Z</time>
      </trkpt>
      <trkpt lat="46.43145" lon="1.10556">
        <ele>132</ele>
        <time>2022-06-10T05:46:13Z</time>
      </trkpt>
      <trkpt lat="46.43169" lon="1.10567">
        <ele>133</ele>
        <time>2022-06-10T05:46:33Z</time>
      </trkpt>
      <trkpt lat="46.43192" lon="1.1057">
        <ele>133</ele>
        <time>2022-06-10T05:46:51Z</time>
      </trkpt>
      <trkpt lat="46.43197" lon="1.10576">
        <ele>134</ele>
        <time>2022-06-10T05:46:56Z</time>
      </trkpt>
      <trkpt lat="46.43199" lon="1.1059">
        <ele>135</ele>
        <time>2022-06-10T05:47:04Z</time>
      </trkpt>
      <trkpt lat="46.43196" lon="1.106">
        <ele>135</ele>
        <time>2022-06-10T05:47:10Z</time>
      </trkpt>
      <trkpt lat="46.43125" lon="1.10722">
        <ele>140</ele>
        <time>2022-06-10T05:48:39Z</time>
      </trkpt>
      <trkpt lat="46.43102" lon="1.1078">
        <ele>141</ele>
        <time>2022-06-10T05:49:15Z</time>
      </trkpt>
      <trkpt lat="46.42947" lon="1.1122">
        <ele>144</ele>
        <time>2022-06-10T05:53:48Z</time>
      </trkpt>
      <trkpt lat="46.4291" lon="1.11335">
        <ele>143</ele>
        <time>2022-06-10T05:54:58Z</time>
      </trkpt>
      <trkpt lat="46.4291" lon="1.11378">
        <ele>143</ele>
        <time>2022-06-10T05:55:22Z</time>
      </trkpt>
      <trkpt lat="46.42914" lon="1.11397">
        <ele>143</ele>
        <time>2022-06-10T05:55:33Z</time>
      </trkpt>
      <trkpt lat="46.42913" lon="1.11398">
        <ele>143</ele>
        <time>2022-06-10T05:55:34Z</time>
      </trkpt>
      <trkpt lat="46.42843" lon="1.1141">
        <ele>139</ele>
        <time>2022-06-10T05:56:30Z</time>
      </trkpt>
      <trkpt lat="46.4282" lon="1.11419">
        <ele>138</ele>
        <time>2022-06-10T05:56:49Z</time>
      </trkpt>
      <trkpt lat="46.42789" lon="1.11432">
        <ele>135</ele>
        <time>2022-06-10T05:57:15Z</time>
      </trkpt>
      <trkpt lat="46.42764" lon="1.11468">
        <ele>133</ele>
        <time>2022-06-10T05:57:43Z</time>
      </trkpt>
      <trkpt lat="46.4275" lon="1.1148">
        <ele>133</ele>
        <time>2022-06-10T05:57:56Z</time>
      </trkpt>
      <trkpt lat="46.42717" lon="1.11505">
        <ele>132</ele>
        <time>2022-06-10T05:58:26Z</time>
      </trkpt>
      <trkpt lat="46.42687" lon="1.11521">
        <ele>131</ele>
        <time>2022-06-10T05:58:52Z</time>
      </trkpt>
      <trkpt lat="46.42673" lon="1.11532">
        <ele>130</ele>
        <time>2022-06-10T05:59:05Z</time>
      </trkpt>
      <trkpt lat="46.42665" lon="1.11537">
        <ele>130</ele>
        <time>2022-06-10T05:59:12Z</time>
      </trkpt>
      <trkpt lat="46.42581" lon="1.11611">
        <ele>131</ele>
        <time>2022-06-10T06:00:30Z</time>
      </trkpt>
      <trkpt lat="46.42571" lon="1.1162">
        <ele>132</ele>
        <time>2022-06-10T06:00:40Z</time>
      </trkpt>
      <trkpt lat="46.42503" lon="1.11712">
        <ele>139</ele>
        <time>2022-06-10T06:01:54Z</time>
      </trkpt>
      <trkpt lat="46.42485" lon="1.11732">
        <ele>139</ele>
        <time>2022-06-10T06:02:12Z</time>
      </trkpt>
      <trkpt lat="46.42468" lon="1.11751">
        <ele>138</ele>
        <time>2022-06-10T06:02:29Z</time>
      </trkpt>
      <trkpt lat="46.42399" lon="1.1179">
        <ele>138</ele>
        <time>2022-06-10T06:03:29Z</time>
      </trkpt>
      <trkpt lat="46.42307" lon="1.11843">
        <ele>140</ele>
        <time>2022-06-10T06:04:48Z</time>
      </trkpt>
      <trkpt lat="46.42215" lon="1.11865">
        <ele>145</ele>
        <time>2022-06-10T06:06:03Z</time>
      </trkpt>
      <trkpt lat="46.42212" lon="1.11865">
        <ele>145</ele>
        <time>2022-06-10T06:06:05Z</time>
      </trkpt>
      <trkpt lat="46.42112" lon="1.1199">
        <ele>135</ele>
        <time>2022-06-10T06:07:51Z</time>
      </trkpt>
      <trkpt lat="46.42108" lon="1.11995">
        <ele>134</ele>
        <time>2022-06-10T06:07:55Z</time>
      </trkpt>
      <trkpt lat="46.42111" lon="1.12001">
        <ele>133</ele>
        <time>2022-06-10T06:07:59Z</time>
      </trkpt>
      <trkpt lat="46.42119" lon="1.12018">
        <ele>133</ele>
        <time>2022-06-10T06:08:10Z</time>
      </trkpt>
      <trkpt lat="46.42124" lon="1.12027">
        <ele>132</ele>
        <time>2022-06-10T06:08:17Z</time>
      </trkpt>
      <trkpt lat="46.42123" lon="1.12031">
        <ele>132</ele>
        <time>2022-06-10T06:08:19Z</time>
      </trkpt>
      <trkpt lat="46.42115" lon="1.12092">
        <ele>131</ele>
        <time>2022-06-10T06:08:53Z</time>
      </trkpt>
      <trkpt lat="46.42118" lon="1.12109">
        <ele>131</ele>
        <time>2022-06-10T06:09:03Z</time>
      </trkpt>
      <trkpt lat="46.4212" lon="1.12122">
        <ele>131</ele>
        <time>2022-06-10T06:09:10Z</time>
      </trkpt>
      <trkpt lat="46.42133" lon="1.12161">
        <ele>132</ele>
        <time>2022-06-10T06:09:34Z</time>
      </trkpt>
      <trkpt lat="46.42145" lon="1.12183">
        <ele>133</ele>
        <time>2022-06-10T06:09:50Z</time>
      </trkpt>
      <trkpt lat="46.42168" lon="1.12218">
        <ele>134</ele>
        <time>2022-06-10T06:10:17Z</time>
      </trkpt>
      <trkpt lat="46.42172" lon="1.12225">
        <ele>134</ele>
        <time>2022-06-10T06:10:22Z</time>
      </trkpt>
      <trkpt lat="46.42173" lon="1.1223">
        <ele>134</ele>
        <time>2022-06-10T06:10:24Z</time>
      </trkpt>
      <trkpt lat="46.42175" lon="1.12231">
        <ele>134</ele>
        <time>2022-06-10T06:10:26Z</time>
      </trkpt>
      <trkpt lat="46.42169" lon="1.12231">
        <ele>134</ele>
        <time>2022-06-10T06:10:31Z</time>
      </trkpt>
      <trkpt lat="46.42161" lon="1.12237">
        <ele>134</ele>
        <time>2022-06-10T06:10:38Z</time>
      </trkpt>
      <trkpt lat="46.42112" lon="1.12292">
        <ele>136</ele>
        <time>2022-06-10T06:11:28Z</time>
      </trkpt>
      <trkpt lat="46.42097" lon="1.12307">
        <ele>137</ele>
        <time>2022-06-10T06:11:42Z</time>
      </trkpt>
      <trkpt lat="46.42061" lon="1.12333">
        <ele>139</ele>
        <time>2022-06-10T06:12:15Z</time>
      </trkpt>
      <trkpt lat="46.42057" lon="1.12336">
        <ele>139</ele>
        <time>2022-06-10T06:12:18Z</time>
      </trkpt>
      <trkpt lat="46.42057" lon="1.12341">
        <ele>139</ele>
        <time>2022-06-10T06:12:21Z</time>
      </trkpt>
      <trkpt lat="46.42054" lon="1.12354">
        <ele>140</ele>
        <time>2022-06-10T06:12:28Z</time>
      </trkpt>
      <trkpt lat="46.42018" lon="1.1246">
        <ele>145</ele>
        <time>2022-06-10T06:13:34Z</time>
      </trkpt>
      <trkpt lat="46.41993" lon="1.12552">
        <ele>148</ele>
        <time>2022-06-10T06:14:28Z</time>
      </trkpt>
      <trkpt lat="46.41957" lon="1.1266">
        <ele>150</ele>
        <time>2022-06-10T06:15:34Z</time>
      </trkpt>
      <trkpt lat="46.41953" lon="1.12675">
        <ele>150</ele>
        <time>2022-06-10T06:15:43Z</time>
      </trkpt>
      <trkpt lat="46.41951" lon="1.12695">
        <ele>150</ele>
        <time>2022-06-10T06:15:55Z</time>
      </trkpt>
      <trkpt lat="46.41945" lon="1.12801">
        <ele>152</ele>
        <time>2022-06-10T06:16:53Z</time>
      </trkpt>
      <trkpt lat="46.41938" lon="1.12878">
        <ele>154</ele>
        <time>2022-06-10T06:17:36Z</time>
      </trkpt>
      <trkpt lat="46.41937" lon="1.12977">
        <ele>156</ele>
        <time>2022-06-10T06:18:31Z</time>
      </trkpt>
      <trkpt lat="46.41936" lon="1.12992">
        <ele>156</ele>
        <time>2022-06-10T06:18:39Z</time>
      </trkpt>
      <trkpt lat="46.4188" lon="1.13175">
        <ele>160</ele>
        <time>2022-06-10T06:20:30Z</time>
      </trkpt>
      <trkpt lat="46.41875" lon="1.13193">
        <ele>161</ele>
        <time>2022-06-10T06:20:40Z</time>
      </trkpt>
      <trkpt lat="46.41846" lon="1.13394">
        <ele>170</ele>
        <time>2022-06-10T06:22:34Z</time>
      </trkpt>
      <trkpt lat="46.41839" lon="1.13437">
        <ele>173</ele>
        <time>2022-06-10T06:22:58Z</time>
      </trkpt>
      <trkpt lat="46.41809" lon="1.13594">
        <ele>179</ele>
        <time>2022-06-10T06:24:28Z</time>
      </trkpt>
      <trkpt lat="46.41796" lon="1.13664">
        <ele>182</ele>
        <time>2022-06-10T06:25:08Z</time>
      </trkpt>
      <trkpt lat="46.41762" lon="1.13807">
        <ele>188</ele>
        <time>2022-06-10T06:26:31Z</time>
      </trkpt>
      <trkpt lat="46.4174" lon="1.13929">
        <ele>189</ele>
        <time>2022-06-10T06:27:41Z</time>
      </trkpt>
      <trkpt lat="46.41739" lon="1.13942">
        <ele>189</ele>
        <time>2022-06-10T06:27:48Z</time>
      </trkpt>
      <trkpt lat="46.41741" lon="1.13961">
        <ele>189</ele>
        <time>2022-06-10T06:27:59Z</time>
      </trkpt>
      <trkpt lat="46.41764" lon="1.1417">
        <ele>186</ele>
        <time>2022-06-10T06:29:56Z</time>
      </trkpt>
      <trkpt lat="46.41763" lon="1.14183">
        <ele>186</ele>
        <time>2022-06-10T06:30:03Z</time>
      </trkpt>
      <trkpt lat="46.41752" lon="1.14296">
        <ele>186</ele>
        <time>2022-06-10T06:31:06Z</time>
      </trkpt>
      <trkpt lat="46.4174" lon="1.14395">
        <ele>186</ele>
        <time>2022-06-10T06:32:01Z</time>
      </trkpt>
      <trkpt lat="46.41736" lon="1.14427">
        <ele>185</ele>
        <time>2022-06-10T06:32:19Z</time>
      </trkpt>
      <trkpt lat="46.41741" lon="1.14637">
        <ele>185</ele>
        <time>2022-06-10T06:34:15Z</time>
      </trkpt>
      <trkpt lat="46.41741" lon="1.14635">
        <ele>185</ele>
        <time>2022-06-10T06:34:16Z</time>
      </trkpt>
      <trkpt lat="46.41664" lon="1.14629">
        <ele>185</ele>
        <time>2022-06-10T06:35:18Z</time>
      </trkpt>
      <trkpt lat="46.41632" lon="1.14627">
        <ele>185</ele>
        <time>2022-06-10T06:35:44Z</time>
      </trkpt>
      <trkpt lat="46.41609" lon="1.14635">
        <ele>185</ele>
        <time>2022-06-10T06:36:03Z</time>
      </trkpt>
      <trkpt lat="46.41577" lon="1.14645">
        <ele>186</ele>
        <time>2022-06-10T06:36:29Z</time>
      </trkpt>
      <trkpt lat="46.41555" lon="1.14665">
        <ele>186</ele>
        <time>2022-06-10T06:36:50Z</time>
      </trkpt>
      <trkpt lat="46.41514" lon="1.14701">
        <ele>185</ele>
        <time>2022-06-10T06:37:28Z</time>
      </trkpt>
      <trkpt lat="46.41499" lon="1.14707">
        <ele>185</ele>
        <time>2022-06-10T06:37:41Z</time>
      </trkpt>
      <trkpt lat="46.41488" lon="1.14711">
        <ele>185</ele>
        <time>2022-06-10T06:37:50Z</time>
      </trkpt>
      <trkpt lat="46.41458" lon="1.14706">
        <ele>186</ele>
        <time>2022-06-10T06:38:14Z</time>
      </trkpt>
      <trkpt lat="46.41449" lon="1.14705">
        <ele>186</ele>
        <time>2022-06-10T06:38:21Z</time>
      </trkpt>
      <trkpt lat="46.41402" lon="1.1466">
        <ele>186</ele>
        <time>2022-06-10T06:39:06Z</time>
      </trkpt>
      <trkpt lat="46.41401" lon="1.14665">
        <ele>186</ele>
        <time>2022-06-10T06:39:09Z</time>
      </trkpt>
      <trkpt lat="46.41392" lon="1.14673">
        <ele>187</ele>
        <time>2022-06-10T06:39:18Z</time>
      </trkpt>
      <trkpt lat="46.41363" lon="1.14691">
        <ele>188</ele>
        <time>2022-06-10T06:39:43Z</time>
      </trkpt>
      <trkpt lat="46.41361" lon="1.1469">
        <ele>188</ele>
        <time>2022-06-10T06:39:44Z</time>
      </trkpt>
      <trkpt lat="46.41389" lon="1.14777">
        <ele>187</ele>
        <time>2022-06-10T06:40:37Z</time>
      </trkpt>
    </trkseg>
  </trk>
</gpx>